sensor_id;sensor_type;location;lat;lon;timestamp;temperature;humidity
13052;DHT22;6592;47.484;9.726;2024-02-15T00:02:03;8.90;99.90
13052;DHT22;6592;47.484;9.726;2024-02-15T00:04:32;8.80;99.90
13052;DHT22;6592;47.484;9.726;2024-02-15T00:07:00;8.70;99.90
13052;DHT22;6592;47.484;9.726;2024-02-15T00:09:29;8.70;99.90
13052;DHT22;6592;47.484;9.726;2024-02-15T00:11:59;8.60;99.90
13052;DHT22;6592;47.484;9.726;2024-02-15T00:14:28;8.60;99.90
13052;DHT22;6592;47.484;9.726;2024-02-15T00:17:00;8.60;99.90
13052;DHT22;6592;47.484;9.726;2024-02-15T00:19:29;8.60;99.90
13052;DHT22;6592;47.484;9.726;2024-02-15T00:21:57;8.60;99.90
13052;DHT22;6592;47.484;9.726;2024-02-15T00:24:26;8.60;99.90
13052;DHT22;6592;47.484;9.726;2024-02-15T00:26:55;8.60;99.90
13052;DHT22;6592;47.484;9.726;2024-02-15T00:29:24;8.60;99.90
13052;DHT22;6592;47.484;9.726;2024-02-15T00:31:55;8.70;99.90
13052;DHT22;6592;47.484;9.726;2024-02-15T00:34:26;8.70;99.90
13052;DHT22;6592;47.484;9.726;2024-02-15T00:36:54;8.70;99.90
13052;DHT22;6592;47.484;9.726;2024-02-15T00:39:23;8.70;99.90
13052;DHT22;6592;47.484;9.726;2024-02-15T00:41:51;8.60;99.90
13052;DHT22;6592;47.484;9.726;2024-02-15T00:44:20;8.60;99.90
13052;DHT22;6592;47.484;9.726;2024-02-15T00:46:48;8.60;99.90
13052;DHT22;6592;47.484;9.726;2024-02-15T00:49:17;8.50;99.90
13052;DHT22;6592;47.484;9.726;2024-02-15T00:51:49;8.50;99.90
13052;DHT22;6592;47.484;9.726;2024-02-15T00:54:18;8.50;99.90
13052;DHT22;6592;47.484;9.726;2024-02-15T00:56:47;8.50;99.90
13052;DHT22;6592;47.484;9.726;2024-02-15T00:59:15;8.50;99.90
13052;DHT22;6592;47.484;9.726;2024-02-15T01:01:45;8.50;99.90
13052;DHT22;6592;47.484;9.726;2024-02-15T01:04:17;8.50;99.90
13052;DHT22;6592;47.484;9.726;2024-02-15T01:06:45;8.50;99.90
13052;DHT22;6592;47.484;9.726;2024-02-15T01:09:16;8.60;99.90
13052;DHT22;6592;47.484;9.726;2024-02-15T01:11:46;8.70;99.90
13052;DHT22;6592;47.484;9.726;2024-02-15T01:14:15;8.50;99.90
13052;DHT22;6592;47.484;9.726;2024-02-15T01:16:45;8.50;99.90
13052;DHT22;6592;47.484;9.726;2024-02-15T01:19:13;8.40;99.90
13052;DHT22;6592;47.484;9.726;2024-02-15T01:21:43;8.40;99.90
13052;DHT22;6592;47.484;9.726;2024-02-15T01:24:16;8.40;99.90
13052;DHT22;6592;47.484;9.726;2024-02-15T01:26:45;8.30;99.90
13052;DHT22;6592;47.484;9.726;2024-02-15T01:29:17;8.30;99.90
13052;DHT22;6592;47.484;9.726;2024-02-15T01:31:47;8.30;99.90
13052;DHT22;6592;47.484;9.726;2024-02-15T01:34:16;8.30;99.90
13052;DHT22;6592;47.484;9.726;2024-02-15T01:36:48;8.50;99.90
13052;DHT22;6592;47.484;9.726;2024-02-15T01:39:18;8.50;99.90
13052;DHT22;6592;47.484;9.726;2024-02-15T01:41:48;8.60;99.90
13052;DHT22;6592;47.484;9.726;2024-02-15T01:44:18;8.70;99.90
13052;DHT22;6592;47.484;9.726;2024-02-15T01:46:49;8.70;99.90
13052;DHT22;6592;47.484;9.726;2024-02-15T01:49:19;8.70;99.90
13052;DHT22;6592;47.484;9.726;2024-02-15T01:51:52;8.70;99.90
13052;DHT22;6592;47.484;9.726;2024-02-15T01:54:25;8.60;99.90
13052;DHT22;6592;47.484;9.726;2024-02-15T01:56:56;8.60;99.90
13052;DHT22;6592;47.484;9.726;2024-02-15T01:59:25;8.70;99.90
13052;DHT22;6592;47.484;9.726;2024-02-15T02:01:55;8.60;99.90
13052;DHT22;6592;47.484;9.726;2024-02-15T02:04:27;8.60;99.90
13052;DHT22;6592;47.484;9.726;2024-02-15T02:06:57;8.50;99.90
13052;DHT22;6592;47.484;9.726;2024-02-15T02:09:29;8.50;99.90
13052;DHT22;6592;47.484;9.726;2024-02-15T02:11:58;8.40;99.90
13052;DHT22;6592;47.484;9.726;2024-02-15T02:14:27;8.30;99.90
13052;DHT22;6592;47.484;9.726;2024-02-15T02:16:57;8.60;99.90
13052;DHT22;6592;47.484;9.726;2024-02-15T02:19:38;8.30;99.90
13052;DHT22;6592;47.484;9.726;2024-02-15T02:22:09;8.30;99.90
13052;DHT22;6592;47.484;9.726;2024-02-15T02:24:55;8.30;99.90
13052;DHT22;6592;47.484;9.726;2024-02-15T02:27:27;8.30;99.90
13052;DHT22;6592;47.484;9.726;2024-02-15T02:29:57;8.30;99.90
13052;DHT22;6592;47.484;9.726;2024-02-15T02:32:27;8.20;99.90
13052;DHT22;6592;47.484;9.726;2024-02-15T02:34:56;8.10;99.90
13052;DHT22;6592;47.484;9.726;2024-02-15T02:37:25;8.00;99.90
13052;DHT22;6592;47.484;9.726;2024-02-15T02:39:55;7.90;99.90
13052;DHT22;6592;47.484;9.726;2024-02-15T02:42:25;7.80;99.90
13052;DHT22;6592;47.484;9.726;2024-02-15T02:44:54;7.80;99.90
13052;DHT22;6592;47.484;9.726;2024-02-15T02:47:24;7.70;99.90
13052;DHT22;6592;47.484;9.726;2024-02-15T02:49:53;7.70;99.90
13052;DHT22;6592;47.484;9.726;2024-02-15T02:52:22;7.60;99.90
13052;DHT22;6592;47.484;9.726;2024-02-15T02:54:50;7.50;99.90
13052;DHT22;6592;47.484;9.726;2024-02-15T02:57:20;7.40;99.90
13052;DHT22;6592;47.484;9.726;2024-02-15T02:59:48;7.40;99.90
13052;DHT22;6592;47.484;9.726;2024-02-15T03:02:17;7.30;99.90
13052;DHT22;6592;47.484;9.726;2024-02-15T03:04:46;7.30;99.90
13052;DHT22;6592;47.484;9.726;2024-02-15T03:07:15;7.20;99.90
13052;DHT22;6592;47.484;9.726;2024-02-15T03:09:45;7.20;99.90
13052;DHT22;6592;47.484;9.726;2024-02-15T03:12:14;7.10;99.90
13052;DHT22;6592;47.484;9.726;2024-02-15T03:14:45;7.10;99.90
13052;DHT22;6592;47.484;9.726;2024-02-15T03:17:14;7.00;99.90
13052;DHT22;6592;47.484;9.726;2024-02-15T03:19:43;6.90;99.90
13052;DHT22;6592;47.484;9.726;2024-02-15T03:22:11;6.90;99.90
13052;DHT22;6592;47.484;9.726;2024-02-15T03:24:40;6.90;99.90
13052;DHT22;6592;47.484;9.726;2024-02-15T03:27:09;6.90;99.90
13052;DHT22;6592;47.484;9.726;2024-02-15T03:29:38;6.90;99.90
13052;DHT22;6592;47.484;9.726;2024-02-15T03:32:08;6.90;99.90
13052;DHT22;6592;47.484;9.726;2024-02-15T03:34:37;7.00;99.90
13052;DHT22;6592;47.484;9.726;2024-02-15T03:37:07;7.10;99.90
13052;DHT22;6592;47.484;9.726;2024-02-15T03:39:36;7.10;99.90
13052;DHT22;6592;47.484;9.726;2024-02-15T03:42:05;7.00;99.90
13052;DHT22;6592;47.484;9.726;2024-02-15T03:44:34;7.10;99.90
13052;DHT22;6592;47.484;9.726;2024-02-15T03:47:03;7.20;99.90
13052;DHT22;6592;47.484;9.726;2024-02-15T03:49:33;7.20;99.90
13052;DHT22;6592;47.484;9.726;2024-02-15T03:52:02;7.30;99.90
13052;DHT22;6592;47.484;9.726;2024-02-15T03:54:31;7.30;99.90
13052;DHT22;6592;47.484;9.726;2024-02-15T03:56:59;7.20;99.90
13052;DHT22;6592;47.484;9.726;2024-02-15T03:59:28;7.50;99.90
13052;DHT22;6592;47.484;9.726;2024-02-15T04:01:59;7.50;99.90
13052;DHT22;6592;47.484;9.726;2024-02-15T04:04:30;7.50;99.90
13052;DHT22;6592;47.484;9.726;2024-02-15T04:07:00;7.40;99.90
13052;DHT22;6592;47.484;9.726;2024-02-15T04:09:29;7.30;99.90
13052;DHT22;6592;47.484;9.726;2024-02-15T04:11:57;7.20;99.90
13052;DHT22;6592;47.484;9.726;2024-02-15T04:14:26;7.20;99.90
13052;DHT22;6592;47.484;9.726;2024-02-15T04:16:54;7.10;99.90
13052;DHT22;6592;47.484;9.726;2024-02-15T04:19:24;6.90;99.90
13052;DHT22;6592;47.484;9.726;2024-02-15T04:21:53;6.90;99.90
13052;DHT22;6592;47.484;9.726;2024-02-15T04:24:25;6.80;99.90
13052;DHT22;6592;47.484;9.726;2024-02-15T04:26:55;6.70;99.90
13052;DHT22;6592;47.484;9.726;2024-02-15T04:29:24;6.70;99.90
13052;DHT22;6592;47.484;9.726;2024-02-15T04:31:52;6.70;99.90
13052;DHT22;6592;47.484;9.726;2024-02-15T04:34:22;6.70;99.90
13052;DHT22;6592;47.484;9.726;2024-02-15T04:36:51;6.60;99.90
13052;DHT22;6592;47.484;9.726;2024-02-15T04:39:24;6.60;99.90
13052;DHT22;6592;47.484;9.726;2024-02-15T04:41:56;6.40;99.90
13052;DHT22;6592;47.484;9.726;2024-02-15T04:44:26;6.50;99.90
13052;DHT22;6592;47.484;9.726;2024-02-15T04:46:55;6.50;99.90
13052;DHT22;6592;47.484;9.726;2024-02-15T04:49:24;6.40;99.90
13052;DHT22;6592;47.484;9.726;2024-02-15T04:51:55;6.30;99.90
13052;DHT22;6592;47.484;9.726;2024-02-15T04:54:31;6.30;99.90
13052;DHT22;6592;47.484;9.726;2024-02-15T04:57:00;6.20;99.90
13052;DHT22;6592;47.484;9.726;2024-02-15T04:59:29;6.30;99.90
13052;DHT22;6592;47.484;9.726;2024-02-15T05:01:58;6.20;99.90
13052;DHT22;6592;47.484;9.726;2024-02-15T05:04:28;6.20;99.90
13052;DHT22;6592;47.484;9.726;2024-02-15T05:06:56;6.10;99.90
13052;DHT22;6592;47.484;9.726;2024-02-15T05:09:26;6.10;99.90
13052;DHT22;6592;47.484;9.726;2024-02-15T05:11:56;6.10;99.90
13052;DHT22;6592;47.484;9.726;2024-02-15T05:14:25;6.00;99.90
13052;DHT22;6592;47.484;9.726;2024-02-15T05:16:53;6.00;99.90
13052;DHT22;6592;47.484;9.726;2024-02-15T05:19:22;6.10;99.90
13052;DHT22;6592;47.484;9.726;2024-02-15T05:21:51;6.10;99.90
13052;DHT22;6592;47.484;9.726;2024-02-15T05:24:21;6.20;99.90
13052;DHT22;6592;47.484;9.726;2024-02-15T05:26:50;6.20;99.90
13052;DHT22;6592;47.484;9.726;2024-02-15T05:29:22;6.10;99.90
13052;DHT22;6592;47.484;9.726;2024-02-15T05:31:51;6.10;99.90
13052;DHT22;6592;47.484;9.726;2024-02-15T05:34:22;6.10;99.90
13052;DHT22;6592;47.484;9.726;2024-02-15T05:36:56;6.10;99.90
13052;DHT22;6592;47.484;9.726;2024-02-15T05:39:26;6.10;99.90
13052;DHT22;6592;47.484;9.726;2024-02-15T05:41:56;6.10;99.90
13052;DHT22;6592;47.484;9.726;2024-02-15T05:44:30;6.10;99.90
13052;DHT22;6592;47.484;9.726;2024-02-15T05:46:59;6.10;99.90
13052;DHT22;6592;47.484;9.726;2024-02-15T05:49:27;6.20;99.90
13052;DHT22;6592;47.484;9.726;2024-02-15T05:51:57;6.20;99.90
13052;DHT22;6592;47.484;9.726;2024-02-15T05:54:27;6.30;99.90
13052;DHT22;6592;47.484;9.726;2024-02-15T05:56:56;6.20;99.90
13052;DHT22;6592;47.484;9.726;2024-02-15T05:59:34;6.10;99.90
13052;DHT22;6592;47.484;9.726;2024-02-15T06:02:02;6.10;99.90
13052;DHT22;6592;47.484;9.726;2024-02-15T06:04:31;6.10;99.90
13052;DHT22;6592;47.484;9.726;2024-02-15T06:07:00;6.00;99.90
13052;DHT22;6592;47.484;9.726;2024-02-15T06:09:29;5.90;99.90
13052;DHT22;6592;47.484;9.726;2024-02-15T06:12:00;5.90;99.90
13052;DHT22;6592;47.484;9.726;2024-02-15T06:14:28;5.90;99.90
13052;DHT22;6592;47.484;9.726;2024-02-15T06:16:58;5.80;99.90
13052;DHT22;6592;47.484;9.726;2024-02-15T06:19:27;5.80;99.90
13052;DHT22;6592;47.484;9.726;2024-02-15T06:21:56;6.00;99.90
13052;DHT22;6592;47.484;9.726;2024-02-15T06:24:24;5.90;99.90
13052;DHT22;6592;47.484;9.726;2024-02-15T06:26:55;6.00;99.90
13052;DHT22;6592;47.484;9.726;2024-02-15T06:29:27;6.10;99.90
13052;DHT22;6592;47.484;9.726;2024-02-15T06:32:15;6.10;99.90
13052;DHT22;6592;47.484;9.726;2024-02-15T06:35:01;6.10;99.90
13052;DHT22;6592;47.484;9.726;2024-02-15T06:37:47;6.10;99.90
13052;DHT22;6592;47.484;9.726;2024-02-15T06:40:33;6.20;99.90
13052;DHT22;6592;47.484;9.726;2024-02-15T06:43:03;6.20;99.90
13052;DHT22;6592;47.484;9.726;2024-02-15T06:45:31;6.20;99.90
13052;DHT22;6592;47.484;9.726;2024-02-15T06:48:04;6.20;99.90
13052;DHT22;6592;47.484;9.726;2024-02-15T06:50:34;6.10;99.90
13052;DHT22;6592;47.484;9.726;2024-02-15T06:53:04;6.20;99.90
13052;DHT22;6592;47.484;9.726;2024-02-15T06:55:33;6.20;99.90
13052;DHT22;6592;47.484;9.726;2024-02-15T06:58:03;6.20;99.90
13052;DHT22;6592;47.484;9.726;2024-02-15T07:00:32;6.20;99.90
13052;DHT22;6592;47.484;9.726;2024-02-15T07:03:01;6.20;99.90
13052;DHT22;6592;47.484;9.726;2024-02-15T07:05:32;6.20;99.90
13052;DHT22;6592;47.484;9.726;2024-02-15T07:08:01;6.30;99.90
13052;DHT22;6592;47.484;9.726;2024-02-15T07:10:30;6.60;99.90
13052;DHT22;6592;47.484;9.726;2024-02-15T07:12:58;7.20;99.90
13052;DHT22;6592;47.484;9.726;2024-02-15T07:15:27;7.40;99.90
13052;DHT22;6592;47.484;9.726;2024-02-15T07:17:55;7.50;99.90
13052;DHT22;6592;47.484;9.726;2024-02-15T07:20:25;7.80;99.90
13052;DHT22;6592;47.484;9.726;2024-02-15T07:22:55;8.00;99.90
13052;DHT22;6592;47.484;9.726;2024-02-15T07:25:25;8.50;99.90
13052;DHT22;6592;47.484;9.726;2024-02-15T07:27:54;9.10;99.90
13052;DHT22;6592;47.484;9.726;2024-02-15T07:30:23;10.00;99.90
13052;DHT22;6592;47.484;9.726;2024-02-15T07:32:52;10.60;99.90
13052;DHT22;6592;47.484;9.726;2024-02-15T07:35:21;11.50;99.90
13052;DHT22;6592;47.484;9.726;2024-02-15T07:37:52;12.60;99.90
13052;DHT22;6592;47.484;9.726;2024-02-15T07:40:24;13.80;99.90
13052;DHT22;6592;47.484;9.726;2024-02-15T07:42:56;15.00;99.90
13052;DHT22;6592;47.484;9.726;2024-02-15T07:45:25;16.20;99.90
13052;DHT22;6592;47.484;9.726;2024-02-15T07:47:57;17.40;99.90
13052;DHT22;6592;47.484;9.726;2024-02-15T07:50:25;18.40;99.90
13052;DHT22;6592;47.484;9.726;2024-02-15T07:52:54;19.20;99.90
13052;DHT22;6592;47.484;9.726;2024-02-15T07:55:24;19.70;99.90
13052;DHT22;6592;47.484;9.726;2024-02-15T07:57:52;20.20;99.90
13052;DHT22;6592;47.484;9.726;2024-02-15T08:00:21;21.00;99.90
13052;DHT22;6592;47.484;9.726;2024-02-15T08:02:49;20.40;99.70
13052;DHT22;6592;47.484;9.726;2024-02-15T08:05:18;20.40;98.60
13052;DHT22;6592;47.484;9.726;2024-02-15T08:07:48;19.70;99.40
13052;DHT22;6592;47.484;9.726;2024-02-15T08:10:16;19.90;98.70
13052;DHT22;6592;47.484;9.726;2024-02-15T08:12:46;19.80;97.30
13052;DHT22;6592;47.484;9.726;2024-02-15T08:15:19;19.40;97.90
13052;DHT22;6592;47.484;9.726;2024-02-15T08:17:47;19.40;97.60
13052;DHT22;6592;47.484;9.726;2024-02-15T08:20:16;19.40;97.90
13052;DHT22;6592;47.484;9.726;2024-02-15T08:22:49;19.60;97.30
13052;DHT22;6592;47.484;9.726;2024-02-15T08:25:17;19.00;97.40
13052;DHT22;6592;47.484;9.726;2024-02-15T08:27:48;18.60;99.40
13052;DHT22;6592;47.484;9.726;2024-02-15T08:30:18;19.00;98.40
13052;DHT22;6592;47.484;9.726;2024-02-15T08:32:51;18.70;98.40
13052;DHT22;6592;47.484;9.726;2024-02-15T08:35:22;18.80;98.70
13052;DHT22;6592;47.484;9.726;2024-02-15T08:37:51;19.90;97.10
13052;DHT22;6592;47.484;9.726;2024-02-15T08:40:20;20.90;96.10
13052;DHT22;6592;47.484;9.726;2024-02-15T08:42:54;21.80;94.00
13052;DHT22;6592;47.484;9.726;2024-02-15T08:45:23;22.30;92.50
13052;DHT22;6592;47.484;9.726;2024-02-15T08:47:52;22.60;91.60
13052;DHT22;6592;47.484;9.726;2024-02-15T08:50:20;23.10;90.30
13052;DHT22;6592;47.484;9.726;2024-02-15T08:52:51;22.50;87.00
13052;DHT22;6592;47.484;9.726;2024-02-15T08:55:19;22.00;88.10
13052;DHT22;6592;47.484;9.726;2024-02-15T08:57:51;21.60;87.40
13052;DHT22;6592;47.484;9.726;2024-02-15T09:00:21;21.20;88.10
13052;DHT22;6592;47.484;9.726;2024-02-15T09:02:50;21.40;86.70
13052;DHT22;6592;47.484;9.726;2024-02-15T09:05:20;21.60;85.70
13052;DHT22;6592;47.484;9.726;2024-02-15T09:07:49;21.40;87.80
13052;DHT22;6592;47.484;9.726;2024-02-15T09:10:19;21.60;85.30
13052;DHT22;6592;47.484;9.726;2024-02-15T09:12:49;20.90;87.10
13052;DHT22;6592;47.484;9.726;2024-02-15T09:15:18;20.80;89.10
13052;DHT22;6592;47.484;9.726;2024-02-15T09:17:48;20.70;90.50
13052;DHT22;6592;47.484;9.726;2024-02-15T09:20:17;21.50;89.80
13052;DHT22;6592;47.484;9.726;2024-02-15T09:22:48;21.40;90.30
13052;DHT22;6592;47.484;9.726;2024-02-15T09:25:17;22.30;88.00
13052;DHT22;6592;47.484;9.726;2024-02-15T09:27:47;23.20;85.00
13052;DHT22;6592;47.484;9.726;2024-02-15T09:30:16;23.30;81.70
13052;DHT22;6592;47.484;9.726;2024-02-15T09:32:47;21.70;87.90
13052;DHT22;6592;47.484;9.726;2024-02-15T09:35:16;21.30;85.00
13052;DHT22;6592;47.484;9.726;2024-02-15T09:37:45;20.00;87.20
13052;DHT22;6592;47.484;9.726;2024-02-15T09:40:17;19.30;90.10
13052;DHT22;6592;47.484;9.726;2024-02-15T09:42:47;18.80;90.30
13052;DHT22;6592;47.484;9.726;2024-02-15T09:45:16;19.10;90.30
13052;DHT22;6592;47.484;9.726;2024-02-15T09:47:47;19.40;90.00
13052;DHT22;6592;47.484;9.726;2024-02-15T09:50:17;20.10;89.60
13052;DHT22;6592;47.484;9.726;2024-02-15T09:52:49;20.60;90.20
13052;DHT22;6592;47.484;9.726;2024-02-15T09:55:18;21.80;86.80
13052;DHT22;6592;47.484;9.726;2024-02-15T09:57:47;22.80;85.00
13052;DHT22;6592;47.484;9.726;2024-02-15T10:00:16;23.60;84.30
13052;DHT22;6592;47.484;9.726;2024-02-15T10:02:49;24.90;80.00
13052;DHT22;6592;47.484;9.726;2024-02-15T10:05:20;25.50;72.90
13052;DHT22;6592;47.484;9.726;2024-02-15T10:07:50;25.30;73.40
13052;DHT22;6592;47.484;9.726;2024-02-15T10:10:20;25.70;64.20
13052;DHT22;6592;47.484;9.726;2024-02-15T10:12:50;25.90;64.20
13052;DHT22;6592;47.484;9.726;2024-02-15T10:15:28;26.80;62.60
13052;DHT22;6592;47.484;9.726;2024-02-15T10:18:02;27.40;60.20
13052;DHT22;6592;47.484;9.726;2024-02-15T10:20:32;27.60;55.70
13052;DHT22;6592;47.484;9.726;2024-02-15T10:23:11;27.60;57.10
13052;DHT22;6592;47.484;9.726;2024-02-15T10:25:40;28.10;55.80
13052;DHT22;6592;47.484;9.726;2024-02-15T10:28:10;29.00;53.50
13052;DHT22;6592;47.484;9.726;2024-02-15T10:30:40;29.60;52.40
13052;DHT22;6592;47.484;9.726;2024-02-15T10:33:18;30.60;53.50
13052;DHT22;6592;47.484;9.726;2024-02-15T10:35:48;31.30;49.90
13052;DHT22;6592;47.484;9.726;2024-02-15T10:38:17;30.60;50.10
13052;DHT22;6592;47.484;9.726;2024-02-15T10:40:46;30.60;49.30
13052;DHT22;6592;47.484;9.726;2024-02-15T10:43:16;30.10;48.30
13052;DHT22;6592;47.484;9.726;2024-02-15T10:45:45;29.90;50.40
13052;DHT22;6592;47.484;9.726;2024-02-15T10:48:18;30.80;47.50
13052;DHT22;6592;47.484;9.726;2024-02-15T10:50:47;29.90;49.50
13052;DHT22;6592;47.484;9.726;2024-02-15T10:53:21;30.60;49.90
13052;DHT22;6592;47.484;9.726;2024-02-15T10:55:58;30.10;47.20
13052;DHT22;6592;47.484;9.726;2024-02-15T10:58:32;28.90;50.00
13052;DHT22;6592;47.484;9.726;2024-02-15T11:01:06;29.40;49.20
13052;DHT22;6592;47.484;9.726;2024-02-15T11:03:44;30.40;48.20
13052;DHT22;6592;47.484;9.726;2024-02-15T11:06:16;31.30;48.30
13052;DHT22;6592;47.484;9.726;2024-02-15T11:08:47;32.20;46.20
13052;DHT22;6592;47.484;9.726;2024-02-15T11:11:16;33.00;47.00
13052;DHT22;6592;47.484;9.726;2024-02-15T11:13:46;33.90;46.00
13052;DHT22;6592;47.484;9.726;2024-02-15T11:16:39;33.80;43.70
13052;DHT22;6592;47.484;9.726;2024-02-15T11:19:09;34.60;45.50
13052;DHT22;6592;47.484;9.726;2024-02-15T11:21:54;34.50;45.80
13052;DHT22;6592;47.484;9.726;2024-02-15T11:24:27;34.30;46.00
13052;DHT22;6592;47.484;9.726;2024-02-15T11:26:58;34.50;45.50
13052;DHT22;6592;47.484;9.726;2024-02-15T11:29:48;34.80;45.50
13052;DHT22;6592;47.484;9.726;2024-02-15T11:32:39;34.80;44.40
13052;DHT22;6592;47.484;9.726;2024-02-15T11:35:13;34.40;44.20
13052;DHT22;6592;47.484;9.726;2024-02-15T11:37:50;34.20;45.40
13052;DHT22;6592;47.484;9.726;2024-02-15T11:40:22;33.30;44.50
13052;DHT22;6592;47.484;9.726;2024-02-15T11:42:52;32.90;45.50
13052;DHT22;6592;47.484;9.726;2024-02-15T11:45:21;32.80;46.10
13052;DHT22;6592;47.484;9.726;2024-02-15T11:47:52;32.10;45.90
13052;DHT22;6592;47.484;9.726;2024-02-15T11:50:22;31.00;46.60
13052;DHT22;6592;47.484;9.726;2024-02-15T11:52:52;29.90;48.00
13052;DHT22;6592;47.484;9.726;2024-02-15T11:55:21;28.90;49.30
13052;DHT22;6592;47.484;9.726;2024-02-15T11:57:56;27.80;50.60
13052;DHT22;6592;47.484;9.726;2024-02-15T12:00:32;26.80;52.00
13052;DHT22;6592;47.484;9.726;2024-02-15T12:03:19;25.90;53.40
13052;DHT22;6592;47.484;9.726;2024-02-15T12:06:08;24.60;55.60
13052;DHT22;6592;47.484;9.726;2024-02-15T12:08:55;23.50;57.40
13052;DHT22;6592;47.484;9.726;2024-02-15T12:11:41;22.60;59.10
13052;DHT22;6592;47.484;9.726;2024-02-15T12:14:27;21.90;60.50
13052;DHT22;6592;47.484;9.726;2024-02-15T12:17:13;21.40;61.20
13052;DHT22;6592;47.484;9.726;2024-02-15T12:20:01;21.20;61.60
13052;DHT22;6592;47.484;9.726;2024-02-15T12:22:39;21.00;63.80
13052;DHT22;6592;47.484;9.726;2024-02-15T12:25:14;20.70;63.50
13052;DHT22;6592;47.484;9.726;2024-02-15T12:27:44;20.60;64.90
13052;DHT22;6592;47.484;9.726;2024-02-15T12:30:14;20.40;65.90
13052;DHT22;6592;47.484;9.726;2024-02-15T12:32:47;20.20;67.10
13052;DHT22;6592;47.484;9.726;2024-02-15T12:35:19;20.20;66.30
13052;DHT22;6592;47.484;9.726;2024-02-15T12:38:01;20.30;67.70
13052;DHT22;6592;47.484;9.726;2024-02-15T12:40:33;21.00;67.80
13052;DHT22;6592;47.484;9.726;2024-02-15T12:43:05;21.50;65.80
13052;DHT22;6592;47.484;9.726;2024-02-15T12:45:36;22.00;65.20
13052;DHT22;6592;47.484;9.726;2024-02-15T12:48:06;22.50;64.50
13052;DHT22;6592;47.484;9.726;2024-02-15T12:50:38;22.70;62.30
13052;DHT22;6592;47.484;9.726;2024-02-15T12:53:08;22.80;62.40
13052;DHT22;6592;47.484;9.726;2024-02-15T12:55:39;22.80;62.70
13052;DHT22;6592;47.484;9.726;2024-02-15T12:58:13;22.60;62.70
13052;DHT22;6592;47.484;9.726;2024-02-15T13:00:43;22.30;63.80
13052;DHT22;6592;47.484;9.726;2024-02-15T13:03:12;22.40;63.20
13052;DHT22;6592;47.484;9.726;2024-02-15T13:05:43;22.10;64.00
13052;DHT22;6592;47.484;9.726;2024-02-15T13:08:15;22.00;64.20
13052;DHT22;6592;47.484;9.726;2024-02-15T13:10:45;22.20;64.80
13052;DHT22;6592;47.484;9.726;2024-02-15T13:13:13;22.30;63.90
13052;DHT22;6592;47.484;9.726;2024-02-15T13:15:43;22.30;63.50
13052;DHT22;6592;47.484;9.726;2024-02-15T13:18:18;22.30;63.30
13052;DHT22;6592;47.484;9.726;2024-02-15T13:20:49;22.60;63.00
13052;DHT22;6592;47.484;9.726;2024-02-15T13:23:21;22.40;63.60
13052;DHT22;6592;47.484;9.726;2024-02-15T13:25:53;21.90;64.40
13052;DHT22;6592;47.484;9.726;2024-02-15T13:28:24;21.80;65.50
13052;DHT22;6592;47.484;9.726;2024-02-15T13:30:52;21.70;65.40
13052;DHT22;6592;47.484;9.726;2024-02-15T13:33:23;21.80;66.40
13052;DHT22;6592;47.484;9.726;2024-02-15T13:35:54;21.80;66.00
13052;DHT22;6592;47.484;9.726;2024-02-15T13:38:24;22.10;66.00
13052;DHT22;6592;47.484;9.726;2024-02-15T13:40:53;22.60;64.60
13052;DHT22;6592;47.484;9.726;2024-02-15T13:43:23;22.70;63.30
13052;DHT22;6592;47.484;9.726;2024-02-15T13:45:52;22.90;63.60
13052;DHT22;6592;47.484;9.726;2024-02-15T13:48:21;23.30;63.10
13052;DHT22;6592;47.484;9.726;2024-02-15T13:50:52;23.80;62.10
13052;DHT22;6592;47.484;9.726;2024-02-15T13:53:21;24.50;60.50
13052;DHT22;6592;47.484;9.726;2024-02-15T13:55:53;25.00;59.30
13052;DHT22;6592;47.484;9.726;2024-02-15T13:58:22;25.20;58.70
13052;DHT22;6592;47.484;9.726;2024-02-15T14:00:50;25.80;57.50
13052;DHT22;6592;47.484;9.726;2024-02-15T14:03:20;26.20;57.40
13052;DHT22;6592;47.484;9.726;2024-02-15T14:05:49;26.60;56.20
13052;DHT22;6592;47.484;9.726;2024-02-15T14:08:18;26.70;55.90
13052;DHT22;6592;47.484;9.726;2024-02-15T14:10:47;26.80;55.10
13052;DHT22;6592;47.484;9.726;2024-02-15T14:13:17;26.60;55.40
13052;DHT22;6592;47.484;9.726;2024-02-15T14:15:48;26.60;55.40
13052;DHT22;6592;47.484;9.726;2024-02-15T14:18:18;26.90;55.30
13052;DHT22;6592;47.484;9.726;2024-02-15T14:20:47;27.00;55.00
13052;DHT22;6592;47.484;9.726;2024-02-15T14:23:16;27.20;54.70
13052;DHT22;6592;47.484;9.726;2024-02-15T14:25:45;27.30;54.40
13052;DHT22;6592;47.484;9.726;2024-02-15T14:28:14;27.20;54.20
13052;DHT22;6592;47.484;9.726;2024-02-15T14:30:44;27.00;53.70
13052;DHT22;6592;47.484;9.726;2024-02-15T14:33:30;26.70;53.70
13052;DHT22;6592;47.484;9.726;2024-02-15T14:36:02;26.30;54.70
13052;DHT22;6592;47.484;9.726;2024-02-15T14:38:31;25.90;54.90
13052;DHT22;6592;47.484;9.726;2024-02-15T14:41:02;25.30;55.10
13052;DHT22;6592;47.484;9.726;2024-02-15T14:43:35;24.90;55.60
13052;DHT22;6592;47.484;9.726;2024-02-15T14:46:05;24.40;56.10
13052;DHT22;6592;47.484;9.726;2024-02-15T14:48:35;23.80;57.10
13052;DHT22;6592;47.484;9.726;2024-02-15T14:51:07;23.30;57.90
13052;DHT22;6592;47.484;9.726;2024-02-15T14:53:37;23.00;58.40
13052;DHT22;6592;47.484;9.726;2024-02-15T14:56:06;22.50;59.10
13052;DHT22;6592;47.484;9.726;2024-02-15T14:58:35;22.20;59.70
13052;DHT22;6592;47.484;9.726;2024-02-15T15:01:05;21.90;60.70
13052;DHT22;6592;47.484;9.726;2024-02-15T15:03:37;21.60;61.60
13052;DHT22;6592;47.484;9.726;2024-02-15T15:06:07;21.40;61.80
13052;DHT22;6592;47.484;9.726;2024-02-15T15:08:54;21.20;62.30
13052;DHT22;6592;47.484;9.726;2024-02-15T15:11:43;20.90;61.90
13052;DHT22;6592;47.484;9.726;2024-02-15T15:14:29;20.50;62.80
13052;DHT22;6592;47.484;9.726;2024-02-15T15:16:59;20.10;63.60
13052;DHT22;6592;47.484;9.726;2024-02-15T15:19:30;19.80;64.30
13052;DHT22;6592;47.484;9.726;2024-02-15T15:21:58;19.40;64.90
13052;DHT22;6592;47.484;9.726;2024-02-15T15:24:27;19.10;65.50
13052;DHT22;6592;47.484;9.726;2024-02-15T15:26:56;18.70;66.40
13052;DHT22;6592;47.484;9.726;2024-02-15T15:29:25;18.50;66.80
13052;DHT22;6592;47.484;9.726;2024-02-15T15:31:54;18.30;67.10
13052;DHT22;6592;47.484;9.726;2024-02-15T15:34:24;18.10;68.80
13052;DHT22;6592;47.484;9.726;2024-02-15T15:36:53;17.80;70.00
13052;DHT22;6592;47.484;9.726;2024-02-15T15:39:22;17.60;69.10
13052;DHT22;6592;47.484;9.726;2024-02-15T15:41:52;17.10;70.50
13052;DHT22;6592;47.484;9.726;2024-02-15T15:44:22;16.70;73.20
13052;DHT22;6592;47.484;9.726;2024-02-15T15:46:54;16.30;73.40
13052;DHT22;6592;47.484;9.726;2024-02-15T15:49:26;16.00;73.30
13052;DHT22;6592;47.484;9.726;2024-02-15T15:51:55;15.90;74.50
13052;DHT22;6592;47.484;9.726;2024-02-15T15:54:24;15.70;75.40
13052;DHT22;6592;47.484;9.726;2024-02-15T15:56:52;15.40;77.40
13052;DHT22;6592;47.484;9.726;2024-02-15T15:59:24;15.10;76.70
13052;DHT22;6592;47.484;9.726;2024-02-15T16:01:52;14.90;77.30
13052;DHT22;6592;47.484;9.726;2024-02-15T16:04:21;14.80;78.10
13052;DHT22;6592;47.484;9.726;2024-02-15T16:06:55;14.70;77.80
13052;DHT22;6592;47.484;9.726;2024-02-15T16:09:25;14.60;78.40
13052;DHT22;6592;47.484;9.726;2024-02-15T16:11:54;14.40;79.80
13052;DHT22;6592;47.484;9.726;2024-02-15T16:14:23;14.30;81.10
13052;DHT22;6592;47.484;9.726;2024-02-15T16:16:59;13.90;82.20